Time;durP1;ratioP1;P1;durP2;ratioP2;P2;SDS_P1;SDS_P2;PMS_P1;PMS_P2;Temp;Humidity;BMP_temperature;BMP_pressure;BME280_temperature;BME280_humidity;BME280_pressure;Samples;Min_cycle;Max_cycle;Signal;HPM_P1;HPM_P2
2023/09/30 00:01:24;;;;;;;17.35;6.70;;;14.00;99.90;;;;;;5039724;28;38630;-79
2023/09/30 00:03:50;;;;;;;12.00;5.38;;;14.00;99.90;;;;;;5044751;28;36505;-81
2023/09/30 00:06:16;;;;;;;11.90;6.18;;;14.00;99.90;;;;;;5046367;28;39010;-81
2023/09/30 00:08:43;;;;;;;10.23;5.38;;;14.00;99.90;;;;;;5062647;28;38746;-81
2023/09/30 00:11:09;;;;;;;9.55;6.13;;;14.00;99.90;;;;;;5057507;28;37716;-82
2023/09/30 00:13:35;;;;;;;10.98;5.63;;;14.00;99.90;;;;;;5055635;28;37407;-81
2023/09/30 00:16:02;;;;;;;11.75;5.38;;;14.00;99.90;;;;;;5046932;28;39661;-79
2023/09/30 00:18:28;;;;;;;12.90;5.50;;;13.90;99.90;;;;;;5037410;28;47081;-81
2023/09/30 00:20:54;;;;;;;14.27;6.30;;;13.80;99.90;;;;;;5058079;28;38587;-81
2023/09/30 00:23:21;;;;;;;12.10;7.13;;;13.80;99.90;;;;;;5056626;28;36349;-79
2023/09/30 00:25:49;;;;;;;10.55;6.28;;;13.80;99.90;;;;;;5057241;28;37825;-80
2023/09/30 00:28:19;;;;;;;12.63;5.78;;;13.70;99.90;;;;;;5058611;28;38768;-80
2023/09/30 00:30:47;;;;;;;14.93;7.03;;;13.70;99.90;;;;;;5035182;28;39066;-79
2023/09/30 00:33:13;;;;;;;12.35;6.40;;;13.70;99.90;;;;;;5056484;28;36129;-80
2023/09/30 00:35:39;;;;;;;11.75;6.28;;;13.70;99.90;;;;;;5060161;28;38710;-80
2023/09/30 00:38:05;;;;;;;15.63;6.90;;;13.70;99.90;;;;;;5042496;28;38842;-80
2023/09/30 00:40:31;;;;;;;9.50;5.93;;;13.70;99.90;;;;;;5048704;28;37542;-80
2023/09/30 00:42:58;;;;;;;14.48;7.05;;;13.70;99.90;;;;;;5039217;28;37229;-80
2023/09/30 00:45:25;;;;;;;11.77;7.63;;;13.70;99.90;;;;;;5033016;28;37605;-80
2023/09/30 00:47:51;;;;;;;11.95;6.90;;;13.70;99.90;;;;;;5021047;28;38644;-81
2023/09/30 00:50:20;;;;;;;16.10;7.90;;;13.70;99.90;;;;;;5055457;28;40043;-81
2023/09/30 00:52:48;;;;;;;14.25;7.35;;;13.70;99.90;;;;;;5040143;28;37686;-81
2023/09/30 00:55:15;;;;;;;12.95;6.78;;;13.70;99.90;;;;;;5037208;28;39367;-80
2023/09/30 00:57:44;;;;;;;14.75;7.35;;;13.70;99.90;;;;;;5040435;28;39061;-81
2023/09/30 01:00:12;;;;;;;11.70;7.40;;;13.70;99.90;;;;;;5041776;28;37332;-80
2023/09/30 01:02:41;;;;;;;13.73;7.20;;;13.70;99.90;;;;;;5417157;22;38844;-79
2023/09/30 01:05:08;;;;;;;12.30;7.10;;;13.70;99.90;;;;;;5044650;28;37747;-79
2023/09/30 01:07:35;;;;;;;11.02;7.45;;;13.60;99.90;;;;;;5049027;28;41211;-79
2023/09/30 01:10:02;;;;;;;15.27;7.90;;;13.60;99.90;;;;;;5075276;28;38978;-79
2023/09/30 01:12:28;;;;;;;13.77;7.53;;;13.70;99.90;;;;;;5058489;28;38090;-79
2023/09/30 01:14:59;;;;;;;15.20;8.15;;;13.60;99.90;;;;;;5064378;28;38352;-79
2023/09/30 01:17:27;;;;;;;16.83;8.85;;;13.50;99.90;;;;;;5052958;28;37751;-79
2023/09/30 01:19:54;;;;;;;18.83;8.95;;;13.50;99.90;;;;;;5051289;28;37252;-79
2023/09/30 01:22:20;;;;;;;19.75;9.13;;;13.60;99.90;;;;;;5050546;28;35768;-78
2023/09/30 01:24:47;;;;;;;15.35;9.65;;;13.60;99.90;;;;;;5062079;28;38625;-79
2023/09/30 01:27:16;;;;;;;18.98;9.50;;;13.60;99.90;;;;;;5051534;28;37946;-79
2023/09/30 01:29:42;;;;;;;11.60;8.15;;;13.60;99.90;;;;;;5051083;28;39687;-79
2023/09/30 01:32:09;;;;;;;17.65;11.05;;;13.60;99.90;;;;;;5050730;28;36382;-79
2023/09/30 01:34:35;;;;;;;18.48;10.90;;;13.60;99.90;;;;;;5048671;28;38862;-79
2023/09/30 01:37:02;;;;;;;20.95;12.35;;;13.50;99.90;;;;;;5070627;28;39642;-79
2023/09/30 01:39:29;;;;;;;14.80;10.30;;;13.50;99.90;;;;;;5065371;28;39165;-79
2023/09/30 01:41:56;;;;;;;18.45;11.00;;;13.50;99.90;;;;;;5022018;28;37039;-79
2023/09/30 01:44:22;;;;;;;24.15;11.65;;;13.60;99.90;;;;;;5059356;28;38614;-79
2023/09/30 01:46:48;;;;;;;27.17;14.82;;;13.60;99.90;;;;;;5070953;28;38643;-79
2023/09/30 01:49:15;;;;;;;19.95;11.30;;;13.60;99.90;;;;;;5053441;28;38422;-80
2023/09/30 01:51:41;;;;;;;17.05;12.45;;;13.60;99.90;;;;;;5071423;28;37832;-78
2023/09/30 01:54:07;;;;;;;21.88;13.60;;;13.60;99.90;;;;;;5040689;28;38589;-79
2023/09/30 01:56:34;;;;;;;19.15;12.07;;;13.70;99.90;;;;;;5038407;28;37979;-79
2023/09/30 01:59:00;;;;;;;18.83;11.15;;;13.70;99.90;;;;;;5047984;28;37629;-79
2023/09/30 02:01:26;;;;;;;19.77;12.35;;;13.70;99.90;;;;;;5061633;28;47551;-78
2023/09/30 02:03:53;;;;;;;20.50;12.25;;;13.70;99.90;;;;;;5043345;28;38638;-79
2023/09/30 02:06:19;;;;;;;17.73;12.30;;;13.60;99.90;;;;;;5042947;28;37241;-79
2023/09/30 02:08:45;;;;;;;18.35;12.00;;;13.60;99.90;;;;;;5045873;28;37351;-79
2023/09/30 02:11:13;;;;;;;16.35;11.27;;;13.60;99.90;;;;;;5043260;28;37112;-79
2023/09/30 02:13:42;;;;;;;15.15;11.50;;;13.60;99.90;;;;;;5054600;28;37878;-79
2023/09/30 02:16:16;;;;;;;20.02;12.68;;;13.60;99.90;;;;;;5064365;28;39435;-78
2023/09/30 02:18:51;;;;;;;18.83;13.43;;;13.60;99.90;;;;;;5043530;28;38708;-79
2023/09/30 02:21:18;;;;;;;18.25;11.77;;;13.60;99.90;;;;;;5051535;28;37337;-79
2023/09/30 02:23:47;;;;;;;18.02;12.30;;;13.50;99.90;;;;;;5047809;28;38660;-79
2023/09/30 02:26:17;;;;;;;21.17;12.98;;;13.50;99.90;;;;;;5052891;28;37712;-79
2023/09/30 02:28:43;;;;;;;24.13;13.20;;;13.50;99.90;;;;;;5051432;28;38502;-79
2023/09/30 02:31:09;;;;;;;19.42;13.00;;;13.50;99.90;;;;;;5052489;28;36400;-79
2023/09/30 02:33:37;;;;;;;16.77;11.43;;;13.40;99.90;;;;;;5058049;28;37983;-79
2023/09/30 02:36:05;;;;;;;18.58;12.65;;;13.40;99.90;;;;;;5054423;28;37856;-79
2023/09/30 02:38:32;;;;;;;18.70;12.52;;;13.40;99.90;;;;;;5059602;28;37752;-79
2023/09/30 02:40:58;;;;;;;22.35;13.23;;;13.40;99.90;;;;;;5064972;28;35863;-79
2023/09/30 02:43:24;;;;;;;23.10;13.48;;;13.40;99.90;;;;;;5057967;28;38655;-80
2023/09/30 02:45:50;;;;;;;19.45;13.80;;;13.40;99.90;;;;;;5070425;28;39111;-79
2023/09/30 02:48:16;;;;;;;21.58;13.75;;;13.50;99.90;;;;;;5070819;28;38600;-80
2023/09/30 02:50:46;;;;;;;31.45;16.35;;;13.50;99.90;;;;;;5061735;28;37517;-80
2023/09/30 02:53:13;;;;;;;22.15;13.27;;;13.60;99.90;;;;;;5058593;28;37775;-80
2023/09/30 02:55:40;;;;;;;25.52;14.23;;;13.70;99.90;;;;;;5073451;28;37886;-79
2023/09/30 02:58:10;;;;;;;24.20;14.50;;;13.70;99.90;;;;;;5066278;28;39612;-79
2023/09/30 03:00:37;;;;;;;21.65;13.85;;;13.70;99.90;;;;;;5078361;28;38161;-78
2023/09/30 03:03:04;;;;;;;20.33;13.43;;;13.70;99.90;;;;;;5071659;28;39517;-79
2023/09/30 03:05:33;;;;;;;22.30;13.57;;;13.70;99.90;;;;;;5079175;28;40272;-79
2023/09/30 03:08:00;;;;;;;25.40;15.75;;;13.70;99.90;;;;;;5073001;28;39148;-80
2023/09/30 03:10:27;;;;;;;24.50;14.13;;;13.70;99.90;;;;;;5083775;28;47031;-80
2023/09/30 03:12:53;;;;;;;27.48;15.95;;;13.70;99.90;;;;;;5059029;28;37564;-80
2023/09/30 03:15:20;;;;;;;19.80;13.57;;;13.70;99.90;;;;;;5056230;28;39123;-80
2023/09/30 03:17:46;;;;;;;34.35;17.45;;;13.70;99.90;;;;;;5057126;28;38186;-80
2023/09/30 03:20:14;;;;;;;24.77;15.95;;;13.70;99.90;;;;;;5068429;28;36258;-80
2023/09/30 03:22:42;;;;;;;28.23;16.83;;;13.70;99.90;;;;;;5067176;28;38886;-79
2023/09/30 03:25:09;;;;;;;30.63;18.67;;;13.70;99.90;;;;;;5082041;28;39109;-79
2023/09/30 03:27:36;;;;;;;26.95;16.95;;;13.70;99.90;;;;;;5072682;28;38814;-80
2023/09/30 03:30:05;;;;;;;23.80;18.30;;;13.70;99.90;;;;;;5050743;28;36504;-79
2023/09/30 03:32:33;;;;;;;26.70;18.25;;;13.70;99.90;;;;;;5074453;28;49057;-80
2023/09/30 03:35:00;;;;;;;28.90;18.25;;;13.70;99.90;;;;;;5044485;28;38164;-79
2023/09/30 03:37:27;;;;;;;30.10;21.13;;;13.70;99.90;;;;;;5051654;28;37482;-80
2023/09/30 03:39:55;;;;;;;27.50;18.60;;;13.70;99.90;;;;;;5049448;28;36802;-80
2023/09/30 03:42:21;;;;;;;25.45;17.52;;;13.70;99.90;;;;;;5051060;28;37974;-80
2023/09/30 03:44:51;;;;;;;27.20;17.63;;;13.60;99.90;;;;;;5073912;28;39969;-79
2023/09/30 03:47:20;;;;;;;31.35;19.83;;;13.60;99.90;;;;;;5073848;28;39387;-79
2023/09/30 03:49:48;;;;;;;33.10;20.30;;;13.70;99.90;;;;;;5068372;28;37615;-80
2023/09/30 03:52:14;;;;;;;26.90;19.05;;;13.60;99.90;;;;;;5051326;28;37659;-79
2023/09/30 03:54:41;;;;;;;23.33;17.88;;;13.60;99.90;;;;;;5049106;28;37602;-79
2023/09/30 03:57:07;;;;;;;25.73;18.75;;;13.70;99.90;;;;;;5044643;28;37598;-80
2023/09/30 03:59:33;;;;;;;28.70;17.77;;;13.60;99.90;;;;;;5043279;28;37494;-79
2023/09/30 04:02:01;;;;;;;29.60;19.30;;;13.60;99.90;;;;;;5061175;28;38782;-79
2023/09/30 04:04:27;;;;;;;28.95;17.88;;;13.60;99.90;;;;;;5049406;28;38691;-79
2023/09/30 04:06:53;;;;;;;32.22;17.90;;;13.60;99.90;;;;;;5068703;28;38496;-79
2023/09/30 04:09:19;;;;;;;21.08;15.75;;;13.60;99.90;;;;;;5063073;28;38511;-79
2023/09/30 04:11:46;;;;;;;24.42;17.83;;;13.60;99.90;;;;;;5062537;28;39216;-79
2023/09/30 04:14:12;;;;;;;29.40;17.83;;;13.60;99.90;;;;;;5040695;28;38010;-79
2023/09/30 04:16:39;;;;;;;24.17;17.13;;;13.60;99.90;;;;;;5054342;28;39209;-78
2023/09/30 04:19:07;;;;;;;25.27;16.23;;;13.50;99.90;;;;;;5058778;28;37429;-79
2023/09/30 04:21:34;;;;;;;25.98;16.27;;;13.50;99.90;;;;;;5070174;28;38659;-79
2023/09/30 04:24:00;;;;;;;24.00;15.70;;;13.50;99.90;;;;;;5045131;28;37626;-79
2023/09/30 04:26:27;;;;;;;31.08;16.52;;;13.50;99.90;;;;;;5047144;28;47119;-79
2023/09/30 04:28:53;;;;;;;33.58;17.38;;;13.50;99.90;;;;;;5065944;28;36967;-80
2023/09/30 04:31:23;;;;;;;32.05;15.73;;;13.60;99.90;;;;;;5063964;28;38495;-79
2023/09/30 04:33:52;;;;;;;30.10;16.65;;;13.50;99.90;;;;;;5048780;28;37722;-80
2023/09/30 04:36:19;;;;;;;23.77;15.93;;;13.60;99.90;;;;;;5066864;28;39031;-79
2023/09/30 04:38:45;;;;;;;21.25;14.27;;;13.50;99.90;;;;;;5052400;28;36486;-79
2023/09/30 04:41:12;;;;;;;23.92;17.33;;;13.50;99.90;;;;;;5039224;28;37959;-80
2023/09/30 04:43:39;;;;;;;20.60;15.90;;;13.50;99.90;;;;;;5073159;28;39511;-79
2023/09/30 04:46:07;;;;;;;19.45;15.40;;;13.50;99.90;;;;;;5054253;28;37562;-78
2023/09/30 04:48:33;;;;;;;22.85;15.98;;;13.50;99.90;;;;;;5054773;28;36558;-79
2023/09/30 04:51:00;;;;;;;22.52;14.98;;;13.50;99.90;;;;;;5072252;28;38754;-79
2023/09/30 04:53:26;;;;;;;25.42;17.33;;;13.50;99.90;;;;;;5070093;28;37676;-79
2023/09/30 04:55:52;;;;;;;31.10;18.92;;;13.40;99.90;;;;;;5050190;28;37496;-79
2023/09/30 04:58:18;;;;;;;25.75;16.55;;;13.40;99.90;;;;;;5053759;28;36264;-79
2023/09/30 05:00:44;;;;;;;28.85;18.02;;;13.40;99.90;;;;;;5055464;28;39049;-79
2023/09/30 05:03:10;;;;;;;40.83;23.45;;;13.40;99.90;;;;;;5077766;28;39114;-79
2023/09/30 05:05:37;;;;;;;24.42;17.88;;;13.40;99.90;;;;;;5050558;28;38914;-78
2023/09/30 05:08:04;;;;;;;25.85;15.20;;;13.40;99.90;;;;;;5049919;28;36380;-79
2023/09/30 05:10:30;;;;;;;23.15;16.10;;;13.30;99.90;;;;;;5067942;28;38666;-79
2023/09/30 05:12:57;;;;;;;36.40;20.15;;;13.30;99.90;;;;;;5047102;28;37984;-79
2023/09/30 05:15:25;;;;;;;27.33;17.42;;;13.30;99.90;;;;;;5064123;28;20065;-79
2023/09/30 05:17:51;;;;;;;31.02;19.42;;;13.30;99.90;;;;;;5067638;28;38035;-79
2023/09/30 05:20:18;;;;;;;27.42;15.95;;;13.40;99.90;;;;;;5046273;28;38443;-78
2023/09/30 05:22:48;;;;;;;31.90;17.70;;;13.40;99.90;;;;;;5068570;28;38669;-79
2023/09/30 05:25:18;;;;;;;27.48;19.70;;;13.40;99.90;;;;;;5071137;28;38178;-79
2023/09/30 05:27:45;;;;;;;30.50;19.88;;;13.40;99.90;;;;;;5055672;28;37846;-79
2023/09/30 05:30:11;;;;;;;33.08;21.60;;;13.40;99.90;;;;;;5045631;28;39481;-79
2023/09/30 05:32:38;;;;;;;30.92;23.63;;;13.40;99.90;;;;;;5049162;28;37688;-79
2023/09/30 05:35:05;;;;;;;32.33;21.70;;;13.40;99.90;;;;;;5071177;28;39018;-79
2023/09/30 05:37:31;;;;;;;34.72;22.30;;;13.40;99.90;;;;;;5070394;28;37441;-79
2023/09/30 05:39:57;;;;;;;40.08;26.75;;;13.40;99.90;;;;;;5069314;28;38941;-79
2023/09/30 05:42:23;;;;;;;34.88;21.65;;;13.40;99.90;;;;;;5067794;28;38527;-79
2023/09/30 05:44:49;;;;;;;44.40;30.17;;;13.40;99.90;;;;;;5060851;28;37781;-80
2023/09/30 05:47:16;;;;;;;33.72;24.67;;;13.40;99.90;;;;;;5058645;28;36279;-79
2023/09/30 05:49:42;;;;;;;39.72;28.58;;;13.50;99.90;;;;;;5064481;28;37866;-80
2023/09/30 05:52:08;;;;;;;30.95;25.38;;;13.50;99.90;;;;;;5059761;28;38742;-79
2023/09/30 05:54:34;;;;;;;50.33;32.65;;;13.50;99.90;;;;;;5068742;28;39957;-80
2023/09/30 05:57:02;;;;;;;54.75;34.72;;;13.40;99.90;;;;;;5051784;28;36334;-80
2023/09/30 05:59:29;;;;;;;37.58;26.25;;;13.50;99.90;;;;;;5055955;28;48263;-80
2023/09/30 06:01:55;;;;;;;38.53;27.85;;;13.50;99.90;;;;;;5047520;28;37691;-79
2023/09/30 06:04:21;;;;;;;39.28;28.00;;;13.60;99.90;;;;;;5068889;28;39376;-78
2023/09/30 06:06:48;;;;;;;37.70;28.38;;;13.60;99.90;;;;;;5050031;28;36174;-78
2023/09/30 06:09:14;;;;;;;36.33;29.33;;;13.60;99.90;;;;;;5057534;28;38462;-79
2023/09/30 06:11:41;;;;;;;40.78;29.27;;;13.70;99.90;;;;;;5050453;28;37907;-80
2023/09/30 06:14:07;;;;;;;41.58;29.15;;;13.70;99.90;;;;;;5071656;28;38962;-79
2023/09/30 06:16:34;;;;;;;45.53;31.17;;;13.70;99.90;;;;;;5069858;28;37019;-79
2023/09/30 06:19:01;;;;;;;42.97;28.33;;;13.70;99.90;;;;;;5049869;28;37682;-79
2023/09/30 06:21:29;;;;;;;48.38;31.52;;;13.70;99.90;;;;;;5050868;28;46400;-79
2023/09/30 06:23:55;;;;;;;39.63;28.13;;;13.70;99.90;;;;;;5063814;28;38343;-79
2023/09/30 06:26:22;;;;;;;40.75;28.65;;;13.80;99.90;;;;;;5063128;28;37978;-79
2023/09/30 06:28:53;;;;;;;34.75;26.50;;;13.80;99.90;;;;;;5060683;28;40057;-79
2023/09/30 06:31:20;;;;;;;35.35;26.73;;;13.80;99.90;;;;;;5062854;28;38792;-79
2023/09/30 06:33:46;;;;;;;31.50;25.50;;;13.80;99.90;;;;;;5043474;28;38365;-79
2023/09/30 06:36:16;;;;;;;36.97;27.35;;;13.80;99.90;;;;;;5062155;28;37365;-79
2023/09/30 06:38:44;;;;;;;38.67;25.88;;;13.80;99.90;;;;;;5067235;28;39021;-79
2023/09/30 06:41:16;;;;;;;38.45;25.40;;;13.80;99.90;;;;;;5048046;28;37619;-78
2023/09/30 06:43:43;;;;;;;39.10;25.55;;;13.80;99.90;;;;;;5047133;28;40371;-79
2023/09/30 06:46:09;;;;;;;43.95;26.63;;;13.80;99.90;;;;;;5046635;28;37489;-79
2023/09/30 06:48:37;;;;;;;37.75;25.83;;;13.80;99.90;;;;;;5067006;28;36996;-78
2023/09/30 06:51:03;;;;;;;37.17;25.27;;;13.80;99.90;;;;;;5049252;28;37612;-78
2023/09/30 06:53:29;;;;;;;35.45;24.98;;;13.80;99.90;;;;;;5061956;28;38975;-79
2023/09/30 06:55:55;;;;;;;34.92;25.38;;;13.80;99.90;;;;;;5040274;28;36888;-78
2023/09/30 06:58:22;;;;;;;42.47;25.77;;;13.80;99.90;;;;;;5058389;28;37765;-78
2023/09/30 07:00:50;;;;;;;44.88;26.45;;;13.80;99.90;;;;;;5042882;28;37709;-79
2023/09/30 07:03:19;;;;;;;39.42;27.65;;;13.90;99.90;;;;;;5040999;28;37534;-78
2023/09/30 07:05:49;;;;;;;33.20;24.23;;;13.90;99.90;;;;;;5064223;28;37384;-80
2023/09/30 07:08:17;;;;;;;34.75;24.50;;;13.90;99.90;;;;;;5044803;28;37576;-79
2023/09/30 07:10:49;;;;;;;30.35;21.58;;;14.00;99.90;;;;;;5047112;28;38913;-78
2023/09/30 07:13:16;;;;;;;30.95;22.92;;;14.00;99.90;;;;;;5048681;28;40967;-78
2023/09/30 07:15:42;;;;;;;38.03;25.00;;;14.00;99.90;;;;;;5050294;28;36786;-79
2023/09/30 07:18:08;;;;;;;41.20;26.63;;;14.10;99.90;;;;;;5062722;28;37624;-78
2023/09/30 07:20:35;;;;;;;40.25;23.92;;;14.10;99.90;;;;;;5045588;28;39349;-79
2023/09/30 07:23:03;;;;;;;36.90;23.48;;;14.10;99.90;;;;;;5067202;28;36717;-78
2023/09/30 07:25:31;;;;;;;40.42;25.00;;;14.20;99.90;;;;;;5063331;28;49255;-78
2023/09/30 07:27:59;;;;;;;33.42;22.77;;;14.20;99.90;;;;;;5049968;28;37744;-79
2023/09/30 07:30:26;;;;;;;35.83;24.25;;;14.20;99.90;;;;;;5046496;28;37691;-79
2023/09/30 07:32:52;;;;;;;38.67;23.45;;;14.30;99.90;;;;;;5063230;28;38351;-79
2023/09/30 07:35:18;;;;;;;37.30;25.70;;;14.30;99.90;;;;;;5064382;28;37484;-78
2023/09/30 07:37:44;;;;;;;41.08;25.63;;;14.40;99.90;;;;;;5064833;28;39766;-79
2023/09/30 07:40:12;;;;;;;34.33;22.23;;;14.50;99.90;;;;;;5045063;28;38575;-79
2023/09/30 07:42:38;;;;;;;36.35;23.73;;;14.50;99.90;;;;;;5041967;28;38270;-79
2023/09/30 07:45:05;;;;;;;34.55;22.52;;;14.50;99.90;;;;;;5039865;28;36262;-78
2023/09/30 07:47:33;;;;;;;33.90;22.05;;;14.60;99.90;;;;;;5058357;28;38907;-78
2023/09/30 07:50:06;;;;;;;35.47;22.95;;;14.60;99.90;;;;;;5069609;28;39650;-78
2023/09/30 07:52:32;;;;;;;;;;;14.60;99.90;;;;;;5064638;28;48925;-77
2023/09/30 07:54:58;;;;;;;37.63;22.58;;;14.70;99.90;;;;;;5065802;28;38116;-77
2023/09/30 07:57:24;;;;;;;35.35;22.05;;;14.80;99.90;;;;;;5048031;28;37916;-78
2023/09/30 07:59:50;;;;;;;37.40;22.80;;;14.80;99.90;;;;;;5063875;28;38849;-77
2023/09/30 08:02:17;;;;;;;26.58;19.15;;;14.80;99.90;;;;;;5048652;28;37639;-77
2023/09/30 08:04:43;;;;;;;35.33;20.58;;;14.80;99.90;;;;;;5043930;28;36535;-78
2023/09/30 08:07:10;;;;;;;31.13;19.95;;;15.00;99.90;;;;;;5046775;28;37533;-79
2023/09/30 08:09:37;;;;;;;33.95;20.88;;;15.10;99.90;;;;;;5042558;28;39092;-79
2023/09/30 08:12:04;;;;;;;34.05;21.75;;;15.10;99.90;;;;;;5041267;28;39216;-79
2023/09/30 08:14:30;;;;;;;33.58;22.30;;;15.20;99.90;;;;;;5058704;28;37416;-79
2023/09/30 08:16:56;;;;;;;32.78;18.67;;;15.30;99.90;;;;;;5061329;28;37646;-78
2023/09/30 08:19:22;;;;;;;31.35;19.05;;;15.30;99.90;;;;;;5045006;28;37623;-79
2023/09/30 08:21:49;;;;;;;27.80;18.75;;;15.40;99.90;;;;;;5047422;28;37377;-78
2023/09/30 08:24:15;;;;;;;27.02;18.33;;;15.50;99.90;;;;;;5071624;28;38193;-79
2023/09/30 08:26:41;;;;;;;32.13;16.50;;;15.60;99.90;;;;;;5047317;28;38018;-80
2023/09/30 08:29:07;;;;;;;26.33;17.05;;;15.70;99.90;;;;;;5067800;28;36998;-80
2023/09/30 08:31:33;;;;;;;24.02;15.02;;;15.80;99.90;;;;;;5053718;28;37248;-80
2023/09/30 08:33:59;;;;;;;24.02;15.52;;;15.80;99.90;;;;;;5066070;28;38350;-79
2023/09/30 08:36:26;;;;;;;25.80;15.07;;;15.80;99.90;;;;;;5056384;28;37899;-80
2023/09/30 08:38:52;;;;;;;26.73;14.82;;;15.90;99.90;;;;;;5067879;28;38772;-79
2023/09/30 08:41:32;;;;;;;28.90;16.27;;;16.00;99.90;;;;;;5049397;28;38359;-78
2023/09/30 08:44:03;;;;;;;27.13;16.02;;;16.10;99.90;;;;;;5045014;28;36775;-77
2023/09/30 08:46:34;;;;;;;29.58;15.73;;;16.20;99.90;;;;;;5046612;28;46940;-77
2023/09/30 08:49:05;;;;;;;24.52;14.38;;;16.30;99.90;;;;;;5063298;28;38237;-76
2023/09/30 08:51:32;;;;;;;27.23;13.80;;;16.40;99.90;;;;;;5047913;28;46883;-77
2023/09/30 08:53:59;;;;;;;26.33;14.43;;;16.50;99.90;;;;;;5057648;28;37796;-77
2023/09/30 08:56:30;;;;;;;23.17;13.20;;;16.50;99.90;;;;;;5055843;28;39771;-76
2023/09/30 08:58:58;;;;;;;17.73;12.27;;;16.60;99.90;;;;;;5058544;28;38732;-77
2023/09/30 09:01:26;;;;;;;22.05;12.80;;;16.70;99.90;;;;;;5038906;28;38489;-75
2023/09/30 09:03:52;;;;;;;19.55;12.02;;;16.80;99.90;;;;;;5056579;28;37738;-74
2023/09/30 09:06:20;;;;;;;23.35;11.27;;;16.90;99.90;;;;;;5060162;28;39025;-77
2023/09/30 09:08:47;;;;;;;19.45;11.18;;;16.90;99.90;;;;;;5040511;28;37651;-78
2023/09/30 09:11:14;;;;;;;19.98;10.57;;;17.00;99.90;;;;;;5044227;28;37582;-75
2023/09/30 09:13:56;;;;;;;20.70;11.10;;;17.10;99.90;;;;;;5040331;28;36527;-77
2023/09/30 09:16:23;;;;;;;21.95;11.82;;;17.30;99.90;;;;;;5057259;28;39074;-77
2023/09/30 09:18:50;;;;;;;20.17;10.60;;;17.30;99.90;;;;;;5056964;28;39769;-75
2023/09/30 09:21:25;;;;;;;16.98;10.75;;;17.40;99.90;;;;;;5059888;28;39797;-75
2023/09/30 09:23:52;;;;;;;21.05;10.85;;;17.50;99.90;;;;;;5057893;28;38883;-75
2023/09/30 09:26:28;;;;;;;18.40;9.60;;;17.50;99.90;;;;;;5060133;28;40228;-79
2023/09/30 09:29:03;;;;;;;18.55;9.95;;;17.60;99.90;;;;;;5038151;28;38971;-75
2023/09/30 09:31:37;;;;;;;17.95;9.95;;;17.80;99.90;;;;;;5043176;28;47329;-76
2023/09/30 09:34:06;;;;;;;19.55;8.45;;;17.80;99.90;;;;;;5040324;28;38068;-77
2023/09/30 09:36:43;;;;;;;16.60;7.45;;;17.90;99.90;;;;;;5041942;28;38108;-78
2023/09/30 09:39:13;;;;;;;13.48;6.95;;;18.00;99.90;;;;;;5040597;28;38792;-78
2023/09/30 09:41:53;;;;;;;13.82;6.65;;;18.20;99.90;;;;;;5041210;28;37395;-77
2023/09/30 09:44:21;;;;;;;11.55;6.22;;;18.20;99.90;;;;;;5041522;28;37506;-77
2023/09/30 09:46:48;;;;;;;11.35;6.43;;;18.40;99.90;;;;;;5047949;28;38614;-77
2023/09/30 09:49:17;;;;;;;13.60;5.95;;;18.50;99.90;;;;;;5050967;28;39533;-77
2023/09/30 09:51:48;;;;;;;15.60;7.22;;;18.80;99.90;;;;;;5057922;28;38034;-78
2023/09/30 09:54:15;;;;;;;14.95;7.90;;;18.80;99.90;;;;;;5054020;28;36544;-78
2023/09/30 09:56:45;;;;;;;17.13;7.45;;;18.90;99.90;;;;;;5043382;28;37264;-79
2023/09/30 09:59:12;;;;;;;20.33;7.10;;;19.00;99.90;;;;;;5048385;28;38124;-79
2023/09/30 10:01:40;;;;;;;15.75;6.53;;;19.10;99.90;;;;;;5031945;28;38334;-78
2023/09/30 10:04:07;;;;;;;12.23;6.50;;;19.20;99.90;;;;;;5056618;28;37312;-77
2023/09/30 10:06:38;;;;;;;12.82;6.28;;;19.30;99.90;;;;;;5037039;28;37716;-79
2023/09/30 10:09:10;;;;;;;13.60;6.18;;;19.10;99.90;;;;;;5058525;28;41139;-79
2023/09/30 10:11:39;;;;;;;15.15;7.95;;;19.30;99.90;;;;;;5059032;28;38388;-78
2023/09/30 10:14:11;;;;;;;12.27;6.93;;;19.20;99.90;;;;;;5044801;28;35951;-79
2023/09/30 10:16:37;;;;;;;;;;;19.20;99.90;;;;;;5043900;28;35898;-78
2023/09/30 10:19:23;;;;;;;19.75;9.95;;;19.30;99.90;;;;;;5040434;28;37970;-79
2023/09/30 10:22:17;;;;;;;21.83;12.00;;;19.10;99.90;;;;;;5046290;28;37449;-78
2023/09/30 10:24:44;;;;;;;23.05;12.52;;;19.00;99.90;;;;;;5032295;28;47844;-76
2023/09/30 10:27:22;;;;;;;20.85;13.20;;;19.00;99.90;;;;;;5038710;28;37806;-79
2023/09/30 10:29:54;;;;;;;23.33;14.45;;;19.10;99.90;;;;;;5040740;28;37664;-79
2023/09/30 10:32:20;;;;;;;;;;;19.20;99.90;;;;;;5042090;28;38825;-78
2023/09/30 10:34:52;;;;;;;22.80;14.65;;;19.30;99.90;;;;;;5036420;28;36717;-79
2023/09/30 10:37:24;;;;;;;22.50;13.85;;;19.40;99.90;;;;;;5055911;28;38081;-78
2023/09/30 10:39:57;;;;;;;22.70;13.43;;;19.30;99.90;;;;;;5061519;28;39837;-78
2023/09/30 10:42:45;;;;;;;20.67;12.85;;;19.00;99.90;;;;;;5058269;28;38594;-78
2023/09/30 10:45:38;;;;;;;17.65;10.60;;;19.00;99.90;;;;;;5058177;28;37166;-77
2023/09/30 10:48:48;;;;;;;21.00;11.40;;;18.90;99.90;;;;;;5040880;28;38648;-78
2023/09/30 10:51:21;;;;;;;18.80;10.57;;;19.20;99.90;;;;;;5040956;28;39091;-78
2023/09/30 10:53:56;;;;;;;16.63;9.88;;;19.30;99.90;;;;;;5032227;28;38260;-78
2023/09/30 10:56:23;;;;;;;19.20;11.68;;;19.30;99.90;;;;;;5039709;28;37050;-79
2023/09/30 10:58:53;;;;;;;20.13;11.50;;;19.40;99.90;;;;;;5055784;28;38438;-79
2023/09/30 11:01:21;;;;;;;17.08;10.80;;;19.40;99.90;;;;;;5053484;28;39326;-77
2023/09/30 11:03:52;;;;;;;18.25;11.25;;;19.30;99.90;;;;;;5043060;28;38737;-80
2023/09/30 11:06:21;;;;;;;20.08;10.68;;;19.10;99.90;;;;;;5037973;28;38220;-79
2023/09/30 11:09:00;;;;;;;18.55;10.23;;;19.00;99.90;;;;;;5046344;28;38582;-78
2023/09/30 11:11:43;;;;;;;18.45;9.88;;;19.30;99.90;;;;;;5053257;28;47296;-76
2023/09/30 11:14:27;;;;;;;15.48;9.18;;;19.50;99.90;;;;;;5039887;28;35414;-78
2023/09/30 11:16:56;;;;;;;19.25;11.07;;;19.60;99.90;;;;;;5051175;28;37110;-78
2023/09/30 11:19:23;;;;;;;18.35;9.27;;;19.70;99.90;;;;;;5037545;28;38434;-79
2023/09/30 11:21:51;;;;;;;14.20;7.82;;;19.80;99.90;;;;;;5051697;28;39804;-79
2023/09/30 11:24:18;;;;;;;18.67;9.73;;;19.60;95.40;;;;;;5046815;28;37427;-78
2023/09/30 11:26:45;;;;;;;19.20;10.18;;;19.60;99.90;;;;;;5056176;28;36632;-79
2023/09/30 11:29:16;;;;;;;13.80;7.40;;;19.40;99.90;;;;;;5054156;28;39870;-79
2023/09/30 11:31:44;;;;;;;18.65;9.35;;;19.50;99.90;;;;;;5057025;28;38457;-79
2023/09/30 11:34:11;;;;;;;21.20;9.52;;;19.40;99.60;;;;;;5037129;28;35969;-78
2023/09/30 11:36:47;;;;;;;17.63;9.55;;;19.40;99.90;;;;;;5039844;28;36436;-77
2023/09/30 11:39:23;;;;;;;18.60;8.57;;;19.30;99.90;;;;;;5055591;28;38737;-76
2023/09/30 11:41:50;;;;;;;20.50;9.57;;;19.60;99.90;;;;;;5051158;28;37790;-78
2023/09/30 11:44:17;;;;;;;16.60;8.73;;;19.50;98.40;;;;;;5049445;28;38774;-78
2023/09/30 11:46:57;;;;;;;20.17;8.20;;;19.50;99.90;;;;;;5034972;28;37416;-78
2023/09/30 11:49:41;;;;;;;19.42;8.48;;;19.60;99.90;;;;;;5041645;28;39489;-77
2023/09/30 11:52:09;;;;;;;22.90;9.55;;;19.70;96.50;;;;;;5055764;28;38635;-78
2023/09/30 11:54:43;;;;;;;16.90;8.05;;;19.60;96.80;;;;;;5054286;28;38293;-78
2023/09/30 11:57:16;;;;;;;17.35;8.73;;;19.50;99.90;;;;;;5052571;28;37877;-77
2023/09/30 11:59:45;;;;;;;28.33;11.38;;;19.50;98.70;;;;;;5042421;28;39610;-77
2023/09/30 12:02:16;;;;;;;22.63;10.80;;;19.40;98.90;;;;;;5055796;28;39001;-78
2023/09/30 12:04:44;;;;;;;21.70;10.32;;;19.50;99.90;;;;;;5054601;28;38160;-77
2023/09/30 12:07:11;;;;;;;20.75;10.05;;;19.50;99.90;;;;;;5034767;28;36128;-77
2023/09/30 12:09:39;;;;;;;22.75;9.70;;;19.40;99.10;;;;;;5035174;28;37953;-79
2023/09/30 12:12:09;;;;;;;20.80;9.35;;;19.40;99.90;;;;;;5037697;28;40274;-78
2023/09/30 12:14:35;;;;;;;23.23;9.48;;;19.50;99.90;;;;;;5059700;28;37628;-78
2023/09/30 12:17:01;;;;;;;22.27;9.65;;;19.60;99.90;;;;;;5034463;28;36436;-79
2023/09/30 12:19:27;;;;;;;21.33;8.85;;;19.60;91.50;;;;;;5040494;28;37467;-78
2023/09/30 12:21:53;;;;;;;21.85;9.13;;;19.60;95.10;;;;;;5039786;28;38171;-79
2023/09/30 12:24:21;;;;;;;15.68;7.78;;;19.80;93.00;;;;;;5063730;28;38394;-78
2023/09/30 12:26:49;;;;;;;15.77;7.40;;;19.90;99.90;;;;;;5040873;28;36108;-78
2023/09/30 12:29:17;;;;;;;15.50;5.85;;;20.00;99.90;;;;;;5055968;28;39881;-79
2023/09/30 12:31:47;;;;;;;14.20;6.70;;;20.10;99.90;;;;;;5055893;28;38698;-79
2023/09/30 12:34:14;;;;;;;21.15;7.32;;;20.00;83.50;;;;;;5043192;28;38854;-78
2023/09/30 12:36:41;;;;;;;20.50;7.05;;;19.80;92.80;;;;;;5041922;28;36021;-79